createdAt,value
2023-01-31T00:00:16.429Z,59.63
2023-01-31T00:01:16.483Z,59.37
2023-01-31T00:02:16.557Z,59.51
2023-01-31T00:03:16.560Z,58.29
2023-01-31T00:04:16.593Z,59.33
2023-01-31T00:05:16.690Z,59.03
2023-01-31T00:06:16.668Z,58.95
2023-01-31T00:07:16.714Z,58.36
2023-01-31T00:08:16.735Z,59.20
2023-01-31T00:09:16.834Z,59.23
2023-01-31T00:10:16.834Z,58.80
2023-01-31T00:11:16.875Z,59.19
2023-01-31T00:12:16.932Z,56.88
2023-01-31T00:13:16.965Z,57.43
2023-01-31T00:14:17.001Z,59.22
2023-01-31T00:15:17.151Z,59.15
2023-01-31T00:16:17.111Z,59.16
2023-01-31T00:17:17.151Z,57.49
2023-01-31T00:18:17.168Z,58.52
2023-01-31T00:19:17.210Z,60.90
2023-01-31T00:20:17.256Z,61.02
2023-01-31T00:21:17.294Z,61.33
2023-01-31T00:22:17.324Z,62.90
2023-01-31T00:23:17.370Z,63.27
2023-01-31T00:24:17.427Z,61.15
2023-01-31T00:25:17.904Z,61.94
2023-01-31T00:26:17.463Z,60.89
2023-01-31T00:27:17.497Z,62.34
2023-01-31T00:28:17.579Z,63.28
2023-01-31T00:29:17.614Z,62.18
2023-01-31T00:30:17.591Z,62.03
2023-01-31T00:31:17.754Z,62.41
2023-01-31T00:32:17.667Z,62.95
2023-01-31T00:33:17.672Z,61.66
2023-01-31T00:34:17.715Z,62.48
2023-01-31T00:35:18.112Z,63.49
2023-01-31T00:36:17.793Z,63.22
2023-01-31T00:49:18.082Z,63.17
2023-01-31T00:50:18.087Z,62.60
2023-01-31T00:51:18.102Z,62.60
2023-01-31T00:52:18.110Z,62.48
2023-01-31T00:53:18.140Z,61.84
2023-01-31T00:54:18.129Z,62.36
2023-01-31T00:55:18.581Z,61.76
2023-01-31T00:56:18.134Z,64.21
2023-01-31T00:57:18.178Z,62.45
2023-01-31T00:58:18.148Z,62.05
2023-01-31T00:59:18.193Z,61.59
2023-01-31T01:00:18.217Z,61.21
2023-01-31T01:01:18.218Z,62.12
2023-01-31T01:02:18.259Z,62.40
2023-01-31T01:03:18.234Z,62.68
2023-01-31T01:04:18.257Z,62.74
2023-01-31T01:46:18.804Z,63.46
2023-01-31T01:47:18.759Z,60.73
2023-01-31T01:48:18.773Z,61.94
2023-01-31T01:49:18.750Z,62.93
2023-01-31T01:50:18.794Z,61.40
2023-01-31T01:51:18.777Z,62.88
2023-01-31T01:52:18.759Z,61.63
2023-01-31T01:53:18.780Z,63.12
2023-01-31T01:54:18.785Z,63.77
2023-01-31T01:55:19.174Z,64.03
2023-01-31T02:29:19.846Z,61.97
2023-01-31T02:30:19.537Z,62.49
2023-01-31T02:31:19.568Z,63.31
2023-01-31T02:32:19.539Z,61.78
2023-01-31T02:33:19.585Z,63.23
2023-01-31T02:34:19.644Z,61.71
2023-01-31T02:35:19.983Z,62.32
2023-01-31T02:36:19.713Z,64.03
2023-01-31T02:37:19.754Z,62.57
2023-01-31T02:38:19.794Z,61.87
2023-01-31T02:39:19.769Z,61.38
2023-01-31T02:40:19.827Z,61.96
2023-01-31T02:41:19.868Z,62.61
2023-01-31T02:43:19.931Z,63.30
2023-01-31T02:44:19.969Z,62.86
2023-01-31T02:45:20.295Z,63.13
2023-01-31T02:46:20.099Z,63.89
2023-01-31T02:47:20.045Z,64.27
2023-01-31T02:48:20.111Z,62.57
2023-01-31T02:49:20.744Z,61.89
2023-01-31T02:50:20.656Z,62.51
2023-01-31T02:51:20.554Z,62.34
2023-01-31T02:52:20.493Z,62.12
2023-01-31T02:53:20.351Z,62.48
2023-01-31T02:54:20.289Z,61.69
2023-01-31T02:55:20.916Z,62.22
2023-01-31T02:56:20.639Z,63.41
2023-01-31T02:57:20.335Z,63.66
2023-01-31T02:58:20.835Z,63.60
2023-01-31T02:59:20.806Z,63.96
2023-01-31T03:00:20.745Z,61.98
2023-01-31T03:01:20.620Z,61.74
2023-01-31T03:02:20.501Z,62.95
2023-01-31T03:03:20.528Z,61.78
2023-01-31T03:04:20.518Z,64.81
2023-01-31T03:05:21.461Z,61.91
2023-01-31T03:06:20.558Z,61.53
2023-01-31T03:07:21.019Z,62.23
2023-01-31T03:08:20.943Z,63.49
2023-01-31T03:09:21.000Z,63.40
2023-01-31T04:05:22.561Z,52.52
2023-01-31T04:06:22.141Z,51.04
2023-01-31T04:07:22.134Z,51.26
2023-01-31T04:08:22.178Z,48.92
2023-01-31T04:09:23.259Z,50.66
2023-01-31T04:10:22.235Z,49.31
2023-01-31T04:11:22.286Z,50.43
2023-01-31T04:12:22.287Z,50.28
2023-01-31T04:13:22.271Z,50.29
2023-01-31T04:14:22.296Z,49.20
2023-01-31T04:15:22.594Z,50.01
2023-01-31T04:16:22.381Z,49.98
2023-01-31T04:17:22.272Z,48.72
2023-01-31T04:18:22.264Z,47.34
2023-01-31T04:19:22.300Z,48.98
2023-01-31T04:20:22.276Z,49.76
2023-01-31T04:21:22.289Z,49.51
2023-01-31T04:22:22.271Z,49.33
2023-01-31T04:23:22.281Z,48.26
2023-01-31T04:24:22.303Z,47.88
2023-01-31T04:25:22.812Z,47.93
2023-01-31T04:26:22.298Z,46.66
2023-01-31T04:27:22.277Z,47.07
2023-01-31T04:28:22.298Z,46.68
2023-01-31T04:29:22.272Z,46.75
2023-01-31T04:30:22.299Z,47.82
2023-01-31T04:31:22.393Z,46.19
2023-01-31T04:32:22.345Z,47.86
2023-01-31T04:33:22.347Z,46.41
2023-01-31T04:34:22.317Z,45.84
2023-01-31T04:35:22.603Z,45.97
2023-01-31T04:36:22.353Z,44.89
2023-01-31T04:37:22.330Z,44.13
2023-01-31T04:38:22.351Z,43.79
2023-01-31T04:39:22.361Z,44.31
2023-01-31T04:40:22.358Z,43.82
2023-01-31T04:41:22.378Z,42.49
2023-01-31T04:42:22.428Z,42.76
2023-01-31T04:43:22.387Z,43.47
2023-01-31T04:44:22.424Z,42.17
2023-01-31T04:45:22.618Z,43.31
2023-01-31T04:46:22.413Z,43.11
2023-01-31T04:47:22.420Z,42.11
2023-01-31T04:48:22.429Z,42.87
2023-01-31T04:49:22.417Z,44.39
2023-01-31T04:50:22.462Z,43.76
2023-01-31T04:51:22.452Z,42.11
2023-01-31T04:52:22.430Z,43.87
2023-01-31T04:53:22.485Z,43.95
2023-01-31T04:54:22.453Z,43.27
2023-01-31T04:55:22.702Z,42.33
2023-01-31T04:56:22.507Z,40.11
2023-01-31T04:57:22.515Z,42.00
2023-01-31T04:58:22.514Z,40.89
2023-01-31T04:59:22.534Z,40.30
2023-01-31T05:00:22.531Z,41.28
2023-01-31T05:01:22.561Z,41.74
2023-01-31T05:05:22.674Z,40.41
2023-01-31T05:06:22.600Z,41.03
2023-01-31T05:07:22.574Z,40.66
2023-01-31T05:08:22.633Z,40.67
2023-01-31T05:09:22.598Z,41.83
2023-01-31T05:11:22.649Z,39.50
2023-01-31T06:00:30.010Z,33.73
2023-01-31T06:01:23.051Z,33.91
2023-01-31T06:02:22.785Z,34.06
2023-01-31T06:03:22.810Z,34.15
2023-01-31T06:04:22.713Z,34.13
2023-01-31T06:05:22.846Z,33.47
2023-01-31T06:06:22.737Z,34.25
2023-01-31T06:07:22.662Z,34.37
2023-01-31T06:08:22.664Z,34.99
2023-01-31T06:09:22.664Z,36.09
2023-01-31T06:10:22.666Z,34.90
2023-01-31T06:11:22.668Z,33.75
2023-01-31T06:12:22.604Z,33.86
2023-01-31T06:13:22.600Z,34.36
2023-01-31T06:14:22.585Z,33.63
2023-01-31T06:15:22.779Z,33.89
2023-01-31T06:16:22.550Z,33.37
2023-01-31T06:17:22.541Z,34.06
2023-01-31T06:18:22.501Z,32.72
2023-01-31T06:19:22.482Z,34.17
2023-01-31T06:20:22.439Z,34.64
2023-01-31T06:21:22.456Z,34.16
2023-01-31T06:22:22.411Z,33.78
2023-01-31T06:23:22.429Z,35.47
2023-01-31T06:24:22.399Z,36.38
2023-01-31T06:25:22.670Z,36.19
2023-01-31T06:26:22.431Z,36.22
2023-01-31T06:27:22.336Z,35.25
2023-01-31T06:28:22.288Z,34.58
2023-01-31T06:29:22.333Z,39.04
2023-01-31T06:30:22.284Z,204.77
2023-01-31T06:31:22.674Z,255.81
2023-01-31T06:32:22.222Z,323.36
2023-01-31T06:33:26.367Z,293.94
2023-01-31T06:34:23.229Z,243.63
2023-01-31T06:35:22.672Z,225.50
2023-01-31T06:36:22.532Z,205.95
2023-01-31T06:37:22.150Z,183.17
2023-01-31T06:38:22.162Z,170.09
2023-01-31T06:39:22.157Z,160.13
2023-01-31T06:40:22.185Z,144.58
2023-01-31T06:41:22.548Z,131.79
2023-01-31T06:42:22.112Z,129.00
2023-01-31T06:43:22.128Z,105.35
2023-01-31T06:44:22.130Z,91.90
2023-01-31T06:47:40.924Z,25.00
2023-01-31T06:48:40.892Z,25.00
2023-01-31T06:49:40.863Z,25.00
2023-01-31T06:51:40.763Z,25.00
2023-01-31T06:52:41.594Z,24.06
2023-01-31T06:53:40.737Z,25.00
2023-01-31T06:54:40.716Z,25.76
2023-01-31T06:55:40.663Z,25.41
2023-01-31T06:56:41.124Z,27.02
2023-01-31T06:57:40.626Z,33.65
2023-01-31T06:58:40.558Z,37.15
2023-01-31T06:59:40.554Z,37.08
2023-01-31T07:00:40.534Z,28.73
2023-01-31T07:02:40.437Z,25.36
2023-01-31T07:03:40.417Z,34.65
2023-01-31T07:04:40.421Z,36.11
2023-01-31T07:05:40.357Z,49.48
2023-01-31T07:06:40.348Z,28.07
2023-01-31T07:07:40.256Z,38.01
2023-01-31T07:08:40.209Z,49.64
2023-01-31T07:09:40.167Z,45.11
2023-01-31T07:10:40.150Z,53.08
2023-01-31T07:11:40.132Z,58.14
2023-01-31T07:12:40.061Z,61.14
2023-01-31T07:13:40.021Z,66.34
2023-01-31T07:14:39.987Z,72.29
2023-01-31T07:15:39.970Z,76.77
2023-01-31T07:16:39.931Z,89.54
2023-01-31T07:17:39.850Z,80.86
2023-01-31T07:18:39.814Z,88.04
2023-01-31T07:19:39.804Z,83.29
2023-01-31T07:20:39.757Z,84.77
2023-01-31T07:21:39.729Z,99.53
2023-01-31T07:22:39.661Z,115.23
2023-01-31T07:23:39.639Z,144.84
2023-01-31T07:24:39.574Z,137.96
2023-01-31T07:25:39.537Z,137.63
2023-01-31T07:26:39.599Z,145.92
2023-01-31T07:27:39.449Z,194.03
2023-01-31T07:28:39.434Z,193.83
2023-01-31T07:29:39.411Z,181.28
2023-01-31T07:31:39.389Z,214.49
2023-01-31T07:32:39.281Z,256.39
2023-01-31T07:33:39.202Z,234.96
2023-01-31T07:34:39.162Z,250.00
2023-01-31T07:35:39.177Z,236.06
2023-01-31T07:36:39.228Z,224.08
2023-01-31T07:37:39.153Z,249.36
2023-01-31T07:38:39.163Z,169.50
2023-01-31T07:39:39.122Z,105.65
2023-01-31T07:40:39.107Z,83.91
2023-01-31T07:41:39.136Z,105.59
2023-01-31T07:42:39.080Z,132.08
2023-01-31T07:43:39.106Z,126.41
2023-01-31T07:44:39.056Z,123.26
2023-01-31T07:45:39.434Z,119.46
2023-01-31T07:46:39.132Z,120.95
2023-01-31T07:47:38.970Z,125.27
2023-01-31T07:48:39.029Z,129.09
2023-01-31T07:49:39.003Z,128.23
2023-01-31T07:50:38.936Z,124.42
2023-01-31T07:51:39.239Z,128.96
2023-01-31T07:52:38.893Z,118.00
2023-01-31T07:53:38.914Z,121.63
2023-01-31T07:54:38.886Z,129.15
2023-01-31T07:55:38.869Z,125.36
2023-01-31T07:56:38.825Z,130.66
2023-01-31T07:57:38.848Z,132.80
2023-01-31T08:01:38.750Z,125.78
2023-01-31T08:02:38.814Z,126.54
2023-01-31T08:04:38.821Z,113.03
2023-01-31T08:05:38.792Z,107.68
2023-01-31T08:06:38.802Z,103.74
2023-01-31T08:07:38.848Z,125.98
2023-01-31T08:08:38.862Z,187.54
2023-01-31T08:09:38.851Z,193.98
2023-01-31T08:10:38.870Z,220.67
2023-01-31T08:11:38.865Z,218.42
2023-01-31T08:12:39.141Z,212.92
2023-01-31T08:13:38.855Z,205.57
2023-01-31T08:14:38.851Z,145.43
2023-01-31T08:15:38.870Z,27.49
2023-01-31T08:16:38.912Z,13.41
2023-01-31T08:27:39.180Z,100.42
2023-01-31T08:31:39.304Z,92.65
2023-01-31T08:33:39.266Z,51.22
2023-01-31T08:35:39.283Z,27.64
2023-01-31T08:36:39.314Z,25.68
2023-01-31T08:37:39.674Z,46.31
2023-01-31T08:38:39.387Z,57.43
2023-01-31T08:39:39.428Z,64.30
2023-01-31T08:41:39.464Z,76.90
2023-01-31T08:42:39.649Z,82.00
2023-01-31T08:43:54.342Z,83.42
2023-01-31T08:44:40.446Z,84.24
2023-01-31T08:45:39.418Z,89.29
2023-01-31T08:46:39.463Z,94.93
2023-01-31T08:47:39.443Z,111.32
2023-01-31T08:48:39.425Z,142.78
2023-01-31T08:49:39.314Z,152.53
2023-01-31T08:50:40.582Z,148.00
2023-01-31T08:51:39.270Z,152.02
2023-01-31T08:52:39.206Z,155.73
2023-01-31T08:53:39.648Z,156.28
2023-01-31T08:54:39.136Z,155.86
2023-01-31T08:55:39.120Z,158.40
2023-01-31T08:56:39.068Z,157.69
2023-01-31T08:57:48.755Z,157.28
2023-01-31T08:58:39.994Z,157.48
2023-01-31T08:59:39.033Z,158.65
2023-01-31T09:00:38.910Z,158.59
2023-01-31T09:01:38.939Z,160.26
2023-01-31T09:02:38.837Z,161.57
2023-01-31T09:03:39.179Z,162.08
2023-01-31T09:04:38.717Z,159.23
2023-01-31T09:05:38.678Z,161.59
2023-01-31T09:06:38.632Z,162.31
2023-01-31T09:07:38.586Z,164.40
2023-01-31T09:08:38.538Z,163.44
2023-01-31T09:09:38.499Z,160.29
2023-01-31T09:10:38.472Z,160.62
2023-01-31T09:11:38.456Z,160.13
2023-01-31T09:12:38.369Z,159.64
2023-01-31T09:13:38.366Z,159.42
2023-01-31T09:14:38.332Z,164.30
2023-01-31T09:15:38.242Z,163.65
2023-01-31T09:16:38.239Z,162.70
2023-01-31T09:17:38.203Z,161.74
2023-01-31T09:18:38.966Z,161.00
2023-01-31T09:19:38.722Z,160.05
2023-01-31T09:20:38.540Z,161.27
2023-01-31T09:21:38.462Z,161.65
2023-01-31T09:22:38.530Z,162.24
2023-01-31T09:23:40.639Z,160.20
2023-01-31T09:24:38.220Z,160.35
2023-01-31T09:25:46.964Z,160.22
2023-01-31T09:26:38.991Z,160.40
2023-01-31T09:27:38.031Z,146.00
2023-01-31T09:28:37.962Z,156.91
2023-01-31T09:29:37.825Z,146.84
2023-01-31T09:30:37.816Z,151.01
2023-01-31T09:31:37.895Z,142.36
2023-01-31T09:32:37.679Z,140.75
2023-01-31T09:33:37.683Z,139.45
2023-01-31T09:34:37.541Z,46.36
2023-01-31T09:35:37.532Z,32.28
2023-01-31T09:36:37.536Z,22.09
2023-01-31T09:37:37.476Z,22.73
2023-01-31T09:38:37.513Z,19.87
2023-01-31T09:39:37.477Z,22.70
2023-01-31T09:40:37.531Z,25.00
2023-01-31T09:41:37.591Z,24.61
2023-01-31T09:42:37.659Z,23.54
2023-01-31T09:43:37.717Z,25.16
2023-01-31T09:44:37.785Z,25.38
2023-01-31T09:45:37.864Z,25.43
2023-01-31T09:46:37.993Z,24.30
2023-01-31T09:47:38.013Z,25.00
2023-01-31T09:48:38.053Z,27.10
2023-01-31T09:49:38.149Z,30.44
2023-01-31T09:50:38.219Z,26.06
2023-01-31T09:51:38.319Z,32.16
2023-01-31T09:52:38.405Z,36.40
2023-01-31T09:53:38.699Z,38.81
2023-01-31T09:54:38.529Z,39.67
2023-01-31T09:55:38.577Z,51.90
2023-01-31T09:56:38.587Z,60.29
2023-01-31T09:57:38.632Z,68.88
2023-01-31T09:58:38.652Z,82.12
2023-01-31T09:59:38.676Z,93.16
2023-01-31T10:00:38.776Z,100.64
2023-01-31T10:01:38.751Z,106.50
2023-01-31T10:02:38.752Z,109.40
2023-01-31T10:03:38.779Z,114.18
2023-01-31T10:04:38.732Z,119.26
2023-01-31T10:05:38.791Z,124.59
2023-01-31T10:06:38.773Z,127.67
2023-01-31T10:07:38.783Z,130.82
2023-01-31T10:08:39.184Z,135.42
2023-01-31T10:09:38.815Z,138.46
2023-01-31T10:10:38.760Z,140.50
2023-01-31T10:11:38.735Z,145.05
2023-01-31T10:12:38.715Z,148.86
2023-01-31T10:13:38.727Z,150.71
2023-01-31T10:14:38.703Z,152.22
2023-01-31T10:15:38.743Z,153.52
2023-01-31T10:16:38.752Z,157.03
2023-01-31T10:17:38.781Z,156.84
2023-01-31T10:18:38.731Z,157.87
2023-01-31T10:19:38.772Z,158.28
2023-01-31T10:20:38.773Z,159.51
2023-01-31T10:21:38.751Z,161.12
2023-01-31T10:22:38.755Z,163.51
2023-01-31T10:23:38.734Z,165.32
2023-01-31T10:24:38.691Z,166.32
2023-01-31T10:25:38.703Z,167.73
2023-01-31T10:26:38.742Z,170.28
2023-01-31T10:27:38.689Z,172.33
2023-01-31T10:28:38.633Z,170.70
2023-01-31T10:29:38.640Z,170.52
2023-01-31T10:30:38.659Z,173.67
2023-01-31T10:31:38.602Z,172.05
2023-01-31T10:32:38.546Z,172.76
2023-01-31T10:33:38.508Z,175.16
2023-01-31T10:34:38.466Z,176.02
2023-01-31T10:35:38.466Z,177.04
2023-01-31T10:36:38.424Z,177.92
2023-01-31T10:37:38.428Z,178.13
2023-01-31T10:38:38.404Z,179.13
2023-01-31T10:39:38.408Z,178.47
2023-01-31T10:40:38.316Z,179.26
2023-01-31T10:41:38.306Z,179.19
2023-01-31T10:42:38.302Z,160.14
2023-01-31T10:43:40.652Z,137.62
2023-01-31T10:44:38.401Z,130.95
2023-01-31T10:45:38.420Z,134.56
2023-01-31T10:46:38.392Z,138.82
2023-01-31T10:47:38.389Z,132.91
2023-01-31T10:48:38.715Z,128.45
2023-01-31T10:49:38.465Z,124.91
2023-01-31T10:50:38.441Z,119.70
2023-01-31T10:51:38.446Z,122.16
2023-01-31T10:52:38.431Z,125.71
2023-01-31T10:53:38.740Z,132.26
2023-01-31T10:54:38.462Z,125.50
2023-01-31T10:55:38.590Z,128.01
2023-01-31T10:56:38.956Z,136.95
2023-01-31T10:57:38.762Z,132.49
2023-01-31T10:58:38.751Z,116.73
2023-01-31T10:59:38.403Z,127.88
2023-01-31T11:00:38.388Z,131.54
2023-01-31T11:01:38.393Z,131.54
2023-01-31T11:02:38.373Z,131.35
2023-01-31T11:03:38.354Z,136.02
2023-01-31T11:04:38.295Z,132.22
2023-01-31T11:05:38.301Z,130.36
2023-01-31T11:06:38.268Z,136.90
2023-01-31T11:07:38.240Z,131.59
2023-01-31T11:08:38.228Z,136.25
2023-01-31T11:09:38.191Z,138.87
2023-01-31T11:10:38.180Z,137.39
2023-01-31T11:11:38.134Z,135.23
2023-01-31T11:12:38.104Z,135.72
2023-01-31T11:13:38.109Z,139.58
2023-01-31T11:14:38.060Z,135.06
2023-01-31T11:15:38.132Z,139.88
2023-01-31T11:16:38.119Z,136.39
2023-01-31T11:17:38.042Z,139.82
2023-01-31T11:18:38.051Z,135.68
2023-01-31T11:19:38.158Z,134.36
2023-01-31T11:20:38.310Z,144.48
2023-01-31T11:21:38.211Z,139.30
2023-01-31T11:22:37.985Z,139.22
2023-01-31T11:23:38.061Z,141.94
2023-01-31T11:24:38.026Z,139.37
2023-01-31T11:25:37.997Z,139.85
2023-01-31T11:26:37.950Z,137.19
2023-01-31T11:27:37.965Z,140.61
2023-01-31T11:28:37.918Z,156.76
2023-01-31T11:29:37.892Z,171.78
2023-01-31T11:30:37.862Z,199.77
2023-01-31T11:31:37.843Z,202.47
2023-01-31T11:32:37.838Z,207.42
2023-01-31T11:33:37.838Z,207.11
2023-01-31T11:34:37.816Z,192.59
2023-01-31T11:35:37.796Z,184.24
2023-01-31T11:36:37.812Z,175.41
2023-01-31T11:37:37.763Z,197.26
2023-01-31T11:38:37.759Z,198.72
2023-01-31T11:39:37.736Z,178.99
2023-01-31T11:40:37.690Z,120.75
2023-01-31T11:41:37.788Z,131.79
2023-01-31T11:42:37.702Z,133.57
2023-01-31T11:43:37.752Z,131.24
2023-01-31T11:44:38.229Z,130.75
2023-01-31T11:45:37.775Z,134.47
2023-01-31T11:46:37.914Z,134.16
2023-01-31T11:47:37.851Z,130.48
2023-01-31T11:48:37.846Z,128.88
2023-01-31T11:49:37.854Z,132.50
2023-01-31T11:50:37.823Z,134.62
2023-01-31T11:51:37.835Z,139.12
2023-01-31T11:52:37.874Z,142.96
2023-01-31T11:53:37.813Z,143.19
2023-01-31T11:54:37.782Z,144.43
2023-01-31T11:55:37.792Z,140.19
2023-01-31T11:56:37.803Z,140.24
2023-01-31T11:57:37.786Z,139.07
2023-01-31T11:58:37.746Z,137.20
2023-01-31T11:59:37.772Z,141.23
2023-01-31T12:00:37.776Z,140.33
2023-01-31T12:01:37.697Z,129.52
2023-01-31T12:02:37.797Z,124.62
2023-01-31T12:03:43.807Z,126.46
2023-01-31T12:04:38.668Z,124.88
2023-01-31T12:05:37.653Z,120.00
2023-01-31T12:06:37.597Z,117.33
2023-01-31T12:07:37.555Z,109.68
2023-01-31T12:08:37.497Z,113.77
2023-01-31T12:09:37.460Z,117.79
2023-01-31T12:10:37.439Z,119.02
2023-01-31T12:11:37.422Z,117.96
2023-01-31T12:12:37.383Z,120.03
2023-01-31T12:13:37.357Z,123.76
2023-01-31T12:14:37.743Z,130.22
2023-01-31T12:15:37.306Z,132.47
2023-01-31T12:16:37.373Z,133.79
2023-01-31T12:17:37.216Z,131.07
2023-01-31T12:18:37.193Z,148.10
2023-01-31T12:19:37.232Z,154.61
2023-01-31T12:20:37.213Z,156.59
2023-01-31T12:21:37.179Z,159.62
2023-01-31T12:22:37.153Z,162.39
2023-01-31T12:23:37.127Z,166.16
2023-01-31T12:24:37.153Z,166.37
2023-01-31T12:25:37.130Z,168.48
2023-01-31T12:26:37.161Z,169.32
2023-01-31T12:27:37.133Z,171.90
2023-01-31T12:28:37.205Z,169.17
2023-01-31T12:29:37.257Z,165.67
2023-01-31T12:30:37.170Z,166.28
2023-01-31T12:31:37.214Z,165.21
2023-01-31T12:32:37.103Z,166.31
2023-01-31T12:33:37.124Z,166.95
2023-01-31T12:34:40.070Z,168.96
2023-01-31T12:35:38.054Z,169.05
2023-01-31T12:36:37.015Z,169.36
2023-01-31T12:37:36.963Z,169.57
2023-01-31T12:38:36.917Z,169.54
2023-01-31T12:39:37.224Z,168.90
2023-01-31T12:40:36.816Z,168.06
2023-01-31T12:41:36.795Z,175.33
2023-01-31T12:42:36.720Z,175.03
2023-01-31T12:43:36.686Z,176.31
2023-01-31T12:44:36.627Z,179.69
2023-01-31T12:45:36.751Z,176.56
2023-01-31T12:46:36.709Z,181.71
2023-01-31T12:47:36.636Z,180.28
2023-01-31T12:48:36.639Z,181.17
2023-01-31T12:49:36.652Z,180.33
2023-01-31T12:50:36.642Z,181.63
2023-01-31T12:51:36.613Z,181.51
2023-01-31T12:52:36.586Z,181.77
2023-01-31T12:53:36.629Z,180.99
2023-01-31T12:54:36.586Z,180.15
2023-01-31T12:55:36.597Z,177.83
2023-01-31T12:56:36.556Z,178.27
2023-01-31T12:57:36.584Z,177.41
2023-01-31T12:58:36.574Z,176.94
2023-01-31T12:59:36.548Z,176.12
2023-01-31T13:00:36.519Z,175.20
2023-01-31T13:01:36.579Z,175.02
2023-01-31T13:02:36.587Z,175.67
2023-01-31T13:03:38.186Z,177.19
2023-01-31T13:04:36.665Z,171.81
2023-01-31T13:05:37.316Z,168.23
2023-01-31T13:06:36.538Z,168.35
2023-01-31T13:07:36.575Z,165.57
2023-01-31T13:08:36.538Z,162.65
2023-01-31T13:09:36.537Z,167.01
2023-01-31T13:10:36.580Z,161.60
2023-01-31T13:11:36.583Z,164.37
2023-01-31T13:12:36.573Z,159.02
2023-01-31T13:13:36.539Z,160.80
2023-01-31T13:14:36.553Z,160.80
2023-01-31T13:15:36.625Z,160.38
2023-01-31T13:16:36.561Z,169.96
2023-01-31T13:17:36.599Z,165.18
2023-01-31T13:18:36.583Z,161.49
2023-01-31T13:19:36.593Z,159.86
2023-01-31T13:20:36.581Z,156.00
2023-01-31T13:32:36.678Z,181.92
2023-01-31T13:33:36.670Z,173.83
2023-01-31T13:34:36.692Z,170.22
2023-01-31T13:35:36.716Z,167.52
2023-01-31T13:36:36.705Z,167.42
2023-01-31T13:37:36.703Z,168.47
2023-01-31T13:38:36.693Z,164.58
2023-01-31T13:39:36.702Z,165.73
2023-01-31T13:40:36.655Z,163.82
2023-01-31T13:41:36.610Z,160.63
2023-01-31T13:42:36.646Z,157.93
2023-01-31T13:43:36.612Z,159.18
2023-01-31T13:44:36.573Z,156.88
2023-01-31T13:45:36.650Z,157.18
2023-01-31T13:46:36.624Z,157.19
2023-01-31T13:47:36.541Z,157.48
2023-01-31T13:48:36.525Z,161.15
2023-01-31T13:49:36.517Z,157.69
2023-01-31T13:50:36.477Z,163.52
2023-01-31T13:51:36.463Z,160.45
2023-01-31T13:52:36.465Z,162.65
2023-01-31T13:53:36.431Z,161.23
2023-01-31T13:54:36.390Z,162.27
2023-01-31T13:55:36.380Z,161.08
2023-01-31T13:56:36.399Z,163.60
2023-01-31T13:57:36.354Z,158.94
2023-01-31T13:58:36.358Z,159.55
2023-01-31T13:59:36.329Z,164.50
2023-01-31T14:00:36.323Z,159.93
2023-01-31T14:01:36.334Z,222.44
2023-01-31T14:02:36.306Z,251.97
2023-01-31T14:03:36.251Z,234.39
2023-01-31T14:04:39.102Z,170.18
2023-01-31T14:05:36.245Z,161.90
2023-01-31T14:06:36.179Z,164.58
2023-01-31T14:07:36.141Z,172.03
2023-01-31T14:08:36.178Z,172.01
2023-01-31T14:09:36.087Z,169.54
2023-01-31T14:10:36.029Z,170.84
2023-01-31T14:11:36.005Z,164.74
2023-01-31T14:12:35.992Z,164.48
2023-01-31T14:13:35.921Z,164.62
2023-01-31T14:14:35.903Z,160.65
2023-01-31T14:15:35.816Z,164.37
2023-01-31T14:16:35.810Z,160.67
2023-01-31T14:17:35.793Z,161.54
2023-01-31T14:18:35.721Z,158.55
2023-01-31T14:19:35.682Z,159.18
2023-01-31T14:20:35.700Z,161.34
2023-01-31T14:21:35.623Z,160.15
2023-01-31T14:22:35.617Z,171.54
2023-01-31T14:23:35.515Z,183.42
2023-01-31T14:24:35.489Z,167.66
2023-01-31T14:25:35.450Z,167.92
2023-01-31T14:26:35.515Z,168.97
2023-01-31T14:27:35.381Z,167.46
2023-01-31T14:28:35.336Z,166.05
2023-01-31T14:29:35.314Z,166.38
2023-01-31T14:30:35.358Z,169.23
2023-01-31T14:31:35.250Z,167.01
2023-01-31T14:32:35.249Z,172.51
2023-01-31T14:33:35.133Z,173.29
2023-01-31T14:34:35.119Z,171.68
2023-01-31T14:35:35.068Z,168.85
2023-01-31T14:36:35.032Z,172.52
2023-01-31T14:37:35.038Z,174.26
2023-01-31T14:38:34.976Z,171.90
2023-01-31T14:39:34.930Z,172.54
2023-01-31T14:40:34.902Z,174.24
2023-01-31T14:41:34.862Z,173.75
2023-01-31T14:42:34.824Z,176.66
2023-01-31T14:43:34.753Z,175.29
2023-01-31T14:44:34.728Z,177.50
2023-01-31T14:45:34.731Z,175.59
2023-01-31T14:46:34.713Z,175.38
2023-01-31T14:47:34.597Z,172.43
2023-01-31T14:48:34.589Z,173.33
2023-01-31T14:49:34.525Z,175.84
2023-01-31T14:50:34.503Z,174.48
2023-01-31T14:51:34.475Z,174.97
2023-01-31T14:52:34.426Z,172.96
2023-01-31T14:53:34.436Z,173.94
2023-01-31T14:54:34.419Z,173.94
2023-01-31T14:55:34.441Z,173.07
2023-01-31T14:56:34.435Z,172.82
2023-01-31T14:57:34.479Z,174.44
2023-01-31T14:58:34.521Z,173.24
2023-01-31T14:59:34.487Z,172.79
2023-01-31T15:00:34.500Z,173.49
2023-01-31T15:01:34.539Z,172.50
2023-01-31T15:02:34.575Z,173.27
2023-01-31T15:03:34.601Z,171.45
2023-01-31T15:04:34.522Z,169.88
2023-01-31T15:05:34.522Z,169.52
2023-01-31T15:06:34.523Z,170.73
2023-01-31T15:07:34.529Z,170.86
2023-01-31T15:08:34.585Z,169.37
2023-01-31T15:09:34.588Z,169.87
2023-01-31T15:10:34.593Z,169.54
2023-01-31T15:11:41.907Z,170.43
2023-01-31T15:12:35.572Z,165.48
2023-01-31T15:13:34.535Z,169.88
2023-01-31T15:14:36.060Z,166.96
2023-01-31T15:15:34.465Z,167.87
2023-01-31T15:16:34.514Z,168.92
2023-01-31T15:17:37.780Z,165.27
2023-01-31T15:18:34.317Z,165.30
2023-01-31T15:19:34.288Z,162.54
2023-01-31T15:20:34.263Z,164.53
2023-01-31T15:21:34.237Z,166.44
2023-01-31T15:22:34.180Z,168.74
2023-01-31T15:23:34.135Z,169.32
2023-01-31T15:24:34.089Z,166.74
2023-01-31T15:25:34.068Z,167.26
2023-01-31T15:26:34.007Z,168.58
2023-01-31T15:27:33.982Z,166.89
2023-01-31T15:28:33.914Z,157.58
2023-01-31T15:29:33.904Z,155.82
2023-01-31T15:30:34.010Z,170.93
2023-01-31T15:31:33.860Z,187.37
2023-01-31T15:32:33.833Z,188.53
2023-01-31T15:33:33.793Z,186.46
2023-01-31T15:34:33.849Z,185.21
2023-01-31T15:35:33.811Z,178.85
2023-01-31T15:36:33.815Z,178.73
2023-01-31T15:37:33.808Z,176.80
2023-01-31T15:38:33.918Z,177.11
2023-01-31T15:39:33.860Z,175.62
2023-01-31T15:40:33.873Z,174.51
2023-01-31T15:41:33.901Z,173.37
2023-01-31T15:42:33.890Z,171.12
2023-01-31T15:43:33.903Z,172.69
2023-01-31T15:44:33.947Z,170.47
2023-01-31T15:45:33.951Z,168.76
2023-01-31T15:46:33.953Z,170.38
2023-01-31T15:47:33.932Z,169.39
2023-01-31T15:48:33.935Z,170.78
2023-01-31T15:49:40.103Z,168.39
2023-01-31T15:50:34.888Z,168.48
2023-01-31T15:51:33.783Z,167.66
2023-01-31T15:52:33.766Z,167.61
2023-01-31T15:53:33.761Z,168.31
2023-01-31T15:54:33.665Z,168.50
2023-01-31T15:55:33.666Z,165.17
2023-01-31T15:56:33.592Z,166.00
2023-01-31T15:57:33.571Z,166.02
2023-01-31T15:58:33.505Z,164.73
2023-01-31T15:59:33.502Z,165.35
2023-01-31T16:00:33.448Z,161.39
2023-01-31T16:01:33.438Z,164.28
2023-01-31T16:02:33.457Z,163.75
2023-01-31T16:03:33.425Z,161.68
2023-01-31T16:04:33.436Z,162.86
2023-01-31T16:05:33.437Z,161.75
2023-01-31T16:06:33.443Z,162.40
2023-01-31T16:07:33.483Z,160.57
2023-01-31T16:08:33.452Z,162.79
2023-01-31T16:09:33.478Z,160.54
2023-01-31T16:10:33.506Z,160.74
2023-01-31T16:11:34.142Z,161.08
2023-01-31T16:12:33.436Z,160.63
2023-01-31T16:13:33.444Z,160.35
2023-01-31T16:14:33.504Z,160.42
2023-01-31T16:15:33.489Z,158.67
2023-01-31T16:16:33.623Z,159.54
2023-01-31T16:17:33.488Z,158.71
2023-01-31T16:18:33.487Z,158.91
2023-01-31T16:19:33.535Z,158.29
2023-01-31T16:20:33.486Z,157.29
2023-01-31T16:21:33.525Z,155.72
2023-01-31T16:22:33.531Z,154.03
2023-01-31T16:23:33.514Z,155.19
2023-01-31T16:24:33.518Z,154.11
2023-01-31T16:25:33.524Z,153.40
2023-01-31T16:26:33.583Z,153.21
2023-01-31T16:27:33.545Z,152.77